Time;durP1;ratioP1;P1;durP2;ratioP2;P2;SDS_P1;SDS_P2;PMS_P1;PMS_P2;Temp;Humidity;BMP_temperature;BMP_pressure;BME280_temperature;BME280_humidity;BME280_pressure;Samples;Min_cycle;Max_cycle;Signal;HPM_P1;HPM_P2
2023/12/24 00:02:02;;;;;;;2.05;0.73;;;14.50;66.50;15.90;100574.00;;;;5009121;28;20239;-76
2023/12/24 00:04:29;;;;;;;4.47;1.10;;;14.50;65.90;15.90;100553.00;;;;5009904;28;20217;-76
2023/12/24 00:06:56;;;;;;;3.03;0.70;;;14.50;65.80;15.90;100548.00;;;;5009932;28;20193;-76
2023/12/24 00:09:22;;;;;;;1.88;0.70;;;14.50;65.80;15.90;100537.00;;;;5010510;28;20204;-77
2023/12/24 00:11:49;;;;;;;3.83;0.95;;;14.50;65.80;15.90;100552.00;;;;5009015;28;20208;-77
2023/12/24 00:14:16;;;;;;;5.40;0.98;;;14.50;65.80;15.90;100530.00;;;;5009295;28;20201;-77
2023/12/24 00:16:45;;;;;;;3.50;0.70;;;14.50;65.80;15.90;100523.00;;;;5008991;28;20208;-76
2023/12/24 00:19:13;;;;;;;3.47;0.80;;;14.50;65.80;15.90;100520.00;;;;5010232;28;20220;-77
2023/12/24 00:21:40;;;;;;;4.38;1.27;;;14.50;65.80;15.90;100511.00;;;;5008952;28;20224;-77
2023/12/24 00:24:07;;;;;;;2.88;0.65;;;14.50;65.80;15.90;100488.00;;;;5009680;28;20219;-77
2023/12/24 00:26:34;;;;;;;2.55;0.52;;;14.50;65.70;15.90;100490.00;;;;5010103;28;20576;-77
2023/12/24 00:29:02;;;;;;;4.10;0.57;;;14.50;65.70;16.00;100489.00;;;;5009047;28;20193;-77
2023/12/24 00:31:28;;;;;;;2.30;0.68;;;14.50;65.70;16.00;100490.00;;;;5008375;28;20593;-76
2023/12/24 00:33:57;;;;;;;3.35;0.82;;;14.50;65.70;16.00;100473.00;;;;5009215;28;20196;-77
2023/12/24 00:36:24;;;;;;;5.60;1.10;;;14.50;65.70;16.00;100476.00;;;;5008762;28;20702;-77
2023/12/24 00:38:50;;;;;;;5.35;0.95;;;14.50;65.70;16.00;100469.00;;;;5009103;28;20533;-77
2023/12/24 00:41:17;;;;;;;3.53;0.60;;;14.60;66.40;16.00;100471.00;;;;5008513;28;20591;-77
2023/12/24 00:43:45;;;;;;;4.82;0.90;;;14.60;65.60;16.00;100477.00;;;;5008762;28;20308;-77
2023/12/24 00:46:15;;;;;;;1.88;0.65;;;14.50;65.50;15.90;100463.00;;;;5016782;28;20298;-77
2023/12/24 00:48:42;;;;;;;7.90;0.85;;;14.50;65.50;16.00;100467.00;;;;5019884;28;20204;-77
2023/12/24 00:51:11;;;;;;;2.40;0.90;;;14.50;65.50;16.00;100455.00;;;;5008316;28;20216;-77
2023/12/24 00:53:37;;;;;;;3.08;0.77;;;14.50;65.40;15.90;100459.00;;;;5009060;28;20201;-77
2023/12/24 00:56:05;;;;;;;3.70;0.70;;;14.60;65.40;15.90;100454.00;;;;5009296;28;20200;-77
2023/12/24 00:58:32;;;;;;;3.67;0.70;;;14.50;65.30;15.90;100437.00;;;;5009329;28;20205;-77
2023/12/24 01:01:02;;;;;;;6.43;1.70;;;14.50;65.30;15.90;100448.00;;;;5008545;28;20223;-77
2023/12/24 01:03:29;;;;;;;4.00;0.70;;;14.50;65.30;15.90;100446.00;;;;5008745;28;20220;-77
2023/12/24 01:05:56;;;;;;;3.17;0.50;;;14.50;65.30;15.80;100436.00;;;;5008704;28;20208;-76
2023/12/24 01:08:24;;;;;;;6.93;1.20;;;14.50;65.40;15.80;100437.00;;;;5009041;28;20660;-76
2023/12/24 01:10:51;;;;;;;1.77;0.50;;;14.50;65.40;15.80;100440.00;;;;5008231;28;20208;-76
2023/12/24 01:13:19;;;;;;;3.78;1.13;;;14.50;65.50;15.80;100439.00;;;;5007046;28;20193;-76
2023/12/24 01:15:47;;;;;;;2.95;0.65;;;14.50;65.50;15.70;100444.00;;;;5008478;28;20295;-77
2023/12/24 01:18:14;;;;;;;2.42;0.70;;;14.40;65.60;15.70;100436.00;;;;5008238;28;20200;-76
2023/12/24 01:20:42;;;;;;;3.70;0.68;;;14.40;65.60;15.70;100434.00;;;;5007274;28;20193;-76
2023/12/24 01:23:09;;;;;;;3.70;1.30;;;14.40;65.80;15.70;100444.00;;;;5009361;28;20264;-76
2023/12/24 01:25:37;;;;;;;2.75;0.60;;;14.40;65.90;15.70;100436.00;;;;5007786;28;20205;-76
2023/12/24 01:28:05;;;;;;;2.63;0.77;;;14.30;66.00;15.70;100439.00;;;;5008114;28;20758;-77
2023/12/24 01:30:32;;;;;;;3.33;1.40;;;14.30;66.10;15.70;100448.00;;;;5008070;28;20204;-76
2023/12/24 01:32:58;;;;;;;3.05;0.82;;;14.20;66.20;15.70;100433.00;;;;5008028;28;20582;-76
2023/12/24 01:35:25;;;;;;;2.55;0.60;;;14.20;66.30;15.70;100434.00;;;;5007560;28;20208;-76
2023/12/24 01:37:52;;;;;;;3.88;1.10;;;14.20;66.50;15.60;100438.00;;;;5007973;28;20208;-76
2023/12/24 01:40:19;;;;;;;5.05;0.90;;;14.20;66.50;15.60;100435.00;;;;5007465;28;20205;-76
2023/12/24 01:42:48;;;;;;;7.40;1.10;;;14.20;66.70;15.60;100436.00;;;;5008353;28;20220;-76
2023/12/24 01:45:15;;;;;;;4.00;1.00;;;14.20;66.70;15.50;100428.00;;;;5006989;28;20205;-76
2023/12/24 01:47:44;;;;;;;3.10;1.02;;;14.10;67.60;15.50;100425.00;;;;5005094;28;21453;-76
2023/12/24 01:50:11;;;;;;;3.38;1.05;;;14.10;67.00;15.50;100421.00;;;;5007852;28;20208;-76
2023/12/24 01:52:39;;;;;;;4.53;1.20;;;14.10;67.00;15.50;100439.00;;;;5005822;28;20203;-76
2023/12/24 01:55:08;;;;;;;3.20;0.70;;;14.00;67.10;15.40;100427.00;;;;5007973;28;20208;-76
2023/12/24 01:57:36;;;;;;;3.38;0.93;;;14.00;67.30;15.40;100423.00;;;;5006849;28;20190;-76
2023/12/24 02:00:06;;;;;;;5.43;0.85;;;14.00;67.20;15.40;100406.00;;;;5006925;28;20208;-76
2023/12/24 02:02:34;;;;;;;3.42;1.00;;;14.00;67.50;15.40;100411.00;;;;5008829;28;20228;-76
2023/12/24 02:05:01;;;;;;;4.75;1.23;;;14.00;67.70;15.40;100398.00;;;;5008306;28;20204;-76
2023/12/24 02:07:34;;;;;;;4.43;0.88;;;14.00;67.80;15.40;100406.00;;;;5007105;28;20778;-76
2023/12/24 02:10:01;;;;;;;1.90;0.55;;;14.00;67.90;15.40;100391.00;;;;5006484;28;20205;-76
2023/12/24 02:12:28;;;;;;;4.68;1.08;;;14.00;68.00;15.40;100392.00;;;;5008985;28;20255;-77
2023/12/24 02:14:55;;;;;;;6.18;1.13;;;14.00;68.10;15.40;100394.00;;;;5008591;28;20212;-76
2023/12/24 02:17:24;;;;;;;5.03;0.82;;;13.90;68.20;15.40;100391.00;;;;5006798;28;20679;-76
2023/12/24 02:19:51;;;;;;;5.40;1.02;;;13.90;68.30;15.40;100384.00;;;;5010380;28;20208;-76
2023/12/24 02:22:20;;;;;;;4.32;0.77;;;13.90;68.50;15.40;100370.00;;;;5012137;28;20682;-76
2023/12/24 02:24:47;;;;;;;3.40;1.00;;;13.90;68.50;15.40;100371.00;;;;5011876;28;20289;-76
2023/12/24 02:27:24;;;;;;;4.90;0.70;;;14.00;68.60;15.40;100354.00;;;;5011798;28;20212;-76
2023/12/24 02:29:59;;;;;;;4.47;0.98;;;13.90;68.70;15.40;100347.00;;;;5010980;28;20216;-76
2023/12/24 02:32:27;;;;;;;5.30;1.38;;;14.00;68.70;15.40;100347.00;;;;5004511;28;20192;-76
2023/12/24 02:34:58;;;;;;;5.78;1.30;;;14.00;68.90;15.40;100355.00;;;;5011947;28;20208;-76
2023/12/24 02:37:26;;;;;;;5.97;1.35;;;14.00;68.90;15.40;100358.00;;;;5011576;28;20207;-76
2023/12/24 02:39:53;;;;;;;3.88;0.68;;;14.00;69.10;15.50;100358.00;;;;5010678;28;20208;-76
2023/12/24 02:42:20;;;;;;;4.30;0.70;;;14.00;69.00;15.50;100348.00;;;;5010259;28;20247;-76
2023/12/24 02:44:47;;;;;;;1.83;0.68;;;14.00;69.10;15.50;100354.00;;;;5010455;28;20193;-76
2023/12/24 02:47:14;;;;;;;3.25;0.50;;;14.00;69.10;15.50;100339.00;;;;5012601;28;20193;-76
2023/12/24 02:49:41;;;;;;;6.68;1.08;;;14.00;69.20;15.50;100342.00;;;;5010653;28;20584;-76
2023/12/24 02:52:08;;;;;;;2.85;0.95;;;14.00;69.20;15.50;100357.00;;;;5011491;28;20201;-76
2023/12/24 02:54:36;;;;;;;2.75;0.63;;;14.00;69.20;15.50;100332.00;;;;5012128;28;20204;-77
2023/12/24 02:57:03;;;;;;;4.70;0.70;;;14.00;69.50;15.50;100336.00;;;;5009861;28;20216;-77
2023/12/24 02:59:30;;;;;;;2.78;0.77;;;14.00;69.40;15.50;100325.00;;;;5011004;28;20200;-76
2023/12/24 03:01:57;;;;;;;4.82;0.93;;;14.10;69.50;15.50;100335.00;;;;5011061;28;20221;-74
2023/12/24 03:04:24;;;;;;;5.95;0.90;;;14.10;69.40;15.50;100342.00;;;;5011606;28;20687;-75
2023/12/24 03:06:51;;;;;;;1.65;0.45;;;14.10;69.50;15.50;100345.00;;;;5009662;28;20208;-74
2023/12/24 03:09:18;;;;;;;3.60;0.30;;;14.10;69.60;15.50;100335.00;;;;5010389;28;20201;-74
2023/12/24 03:11:47;;;;;;;2.88;0.40;;;14.10;69.50;15.50;100331.00;;;;5010718;28;20233;-75
2023/12/24 03:14:14;;;;;;;1.25;0.30;;;14.10;69.50;15.50;100318.00;;;;5011602;28;20204;-74
2023/12/24 03:16:41;;;;;;;2.58;0.50;;;14.10;69.50;15.50;100318.00;;;;5009926;28;20204;-74
2023/12/24 03:19:08;;;;;;;2.35;0.68;;;14.10;69.60;15.50;100304.00;;;;5010564;28;20659;-74
2023/12/24 03:21:35;;;;;;;2.40;0.45;;;14.10;69.60;15.50;100312.00;;;;5011067;28;20260;-75
2023/12/24 03:24:02;;;;;;;1.83;0.30;;;14.20;70.10;15.50;100295.00;;;;5011006;28;20221;-75
2023/12/24 03:26:29;;;;;;;1.92;0.35;;;14.10;69.80;15.50;100291.00;;;;5010868;28;20204;-74
2023/12/24 03:28:57;;;;;;;1.05;0.30;;;14.20;70.00;15.50;100290.00;;;;5009564;28;20571;-75
2023/12/24 03:31:26;;;;;;;0.63;0.10;;;14.20;69.90;15.60;100285.00;;;;5010512;28;20197;-75
2023/12/24 03:33:53;;;;;;;1.10;0.40;;;14.20;70.00;15.60;100286.00;;;;5009899;28;20581;-75
2023/12/24 03:36:20;;;;;;;1.10;0.20;;;14.10;70.00;15.60;100292.00;;;;5013778;28;20211;-75
2023/12/24 03:38:47;;;;;;;1.25;0.10;;;14.20;70.00;15.60;100288.00;;;;5014496;28;20663;-75
2023/12/24 03:41:14;;;;;;;1.35;0.20;;;14.20;70.20;15.60;100288.00;;;;5010992;28;20241;-75
2023/12/24 03:43:41;;;;;;;0.13;0.10;;;14.20;70.20;15.60;100295.00;;;;5011322;28;20651;-75
2023/12/24 03:46:09;;;;;;;1.70;0.10;;;14.20;70.20;15.60;100280.00;;;;5009862;28;20663;-75
2023/12/24 03:48:37;;;;;;;0.52;0.00;;;14.20;70.40;15.60;100275.00;;;;5009992;28;20205;-75
2023/12/24 03:51:05;;;;;;;1.77;0.38;;;14.20;70.30;15.60;100279.00;;;;5009328;28;20733;-75
2023/12/24 03:53:32;;;;;;;0.50;0.20;;;14.20;70.20;15.60;100276.00;;;;5010716;28;20205;-75
2023/12/24 03:55:59;;;;;;;0.57;0.10;;;14.20;70.30;15.70;100271.00;;;;5010010;28;20197;-75
2023/12/24 03:58:25;;;;;;;4.15;0.20;;;14.20;70.40;15.70;100272.00;;;;5010134;28;20208;-75
2023/12/24 04:00:52;;;;;;;0.55;0.00;;;14.20;70.40;15.70;100274.00;;;;5008489;28;20682;-75
2023/12/24 04:03:21;;;;;;;0.20;0.00;;;14.30;70.60;15.70;100264.00;;;;4944087;28;20231;-75
2023/12/24 04:05:47;;;;;;;0.35;0.10;;;14.20;70.50;15.70;100260.00;;;;5005371;28;20205;-75
2023/12/24 04:08:15;;;;;;;0.47;0.13;;;14.30;70.80;15.70;100269.00;;;;5009736;28;20651;-75
2023/12/24 04:10:42;;;;;;;0.85;0.17;;;14.30;70.60;15.60;100265.00;;;;5009644;28;20663;-75
2023/12/24 04:13:09;;;;;;;0.43;0.10;;;14.30;70.70;15.70;100270.00;;;;5009971;28;20232;-74
2023/12/24 04:15:36;;;;;;;1.33;0.20;;;14.30;70.70;15.70;100267.00;;;;5010180;28;20201;-75
2023/12/24 04:18:04;;;;;;;0.40;0.13;;;14.30;70.80;15.70;100273.00;;;;5009020;28;20208;-75
2023/12/24 04:20:32;;;;;;;0.95;0.20;;;14.30;70.70;15.70;100269.00;;;;5009415;28;20219;-75
2023/12/24 04:22:59;;;;;;;0.63;0.10;;;14.30;71.00;15.70;100272.00;;;;5009541;28;20229;-75
2023/12/24 04:25:26;;;;;;;1.13;0.17;;;14.30;70.90;15.70;100254.00;;;;5009139;28;20197;-75
2023/12/24 04:27:53;;;;;;;0.60;0.10;;;14.30;70.80;15.70;100262.00;;;;5006757;28;20201;-75
2023/12/24 04:30:20;;;;;;;1.98;0.25;;;14.30;70.90;15.70;100262.00;;;;5009983;28;20201;-75
2023/12/24 04:32:47;;;;;;;1.17;0.20;;;14.40;70.90;15.80;100257.00;;;;5008919;28;20209;-75
2023/12/24 04:35:14;;;;;;;0.75;0.22;;;14.30;70.90;15.80;100261.00;;;;5015950;28;20207;-75
2023/12/24 04:37:43;;;;;;;1.30;0.30;;;14.40;71.00;15.80;100260.00;;;;5008630;28;20208;-75
2023/12/24 04:40:11;;;;;;;1.35;0.20;;;14.40;71.00;15.80;100257.00;;;;5008970;28;20657;-75
2023/12/24 04:42:38;;;;;;;0.77;0.28;;;14.40;71.00;15.90;100261.00;;;;5007907;28;20237;-75
2023/12/24 04:45:06;;;;;;;0.43;0.30;;;14.40;71.00;15.90;100251.00;;;;5009349;28;20648;-75
2023/12/24 04:47:33;;;;;;;1.10;0.30;;;14.50;71.10;15.90;100254.00;;;;5009463;28;20596;-74
2023/12/24 04:50:00;;;;;;;1.05;0.15;;;14.40;71.00;15.90;100251.00;;;;5008537;28;20204;-75
2023/12/24 04:52:26;;;;;;;2.38;0.40;;;14.50;71.20;15.90;100247.00;;;;5010432;28;20201;-75
2023/12/24 04:54:55;;;;;;;0.90;0.22;;;14.50;71.20;15.90;100248.00;;;;5009361;28;21115;-75
2023/12/24 04:57:22;;;;;;;1.27;0.45;;;14.50;71.20;15.90;100241.00;;;;5009065;28;20228;-75
2023/12/24 04:59:48;;;;;;;3.72;0.80;;;14.50;71.20;15.90;100243.00;;;;5008089;28;20197;-75
2023/12/24 05:02:15;;;;;;;2.20;0.30;;;14.50;71.20;16.00;100246.00;;;;5008674;28;20217;-75
2023/12/24 05:04:43;;;;;;;1.15;0.45;;;14.50;71.30;16.00;100236.00;;;;5008548;28;20223;-75
2023/12/24 05:07:10;;;;;;;0.88;0.20;;;14.60;71.30;16.00;100229.00;;;;5008853;28;20685;-75
2023/12/24 05:09:39;;;;;;;1.45;0.20;;;14.60;71.30;16.00;100237.00;;;;5008075;28;20193;-75
2023/12/24 05:12:09;;;;;;;1.70;0.40;;;14.60;71.30;16.00;100242.00;;;;5008598;28;20205;-75
2023/12/24 05:14:36;;;;;;;2.30;0.57;;;14.60;71.30;16.00;100237.00;;;;5009059;28;20189;-74
2023/12/24 05:17:03;;;;;;;1.33;0.32;;;14.60;71.30;16.00;100233.00;;;;5009460;28;20201;-75
2023/12/24 05:19:30;;;;;;;2.05;0.40;;;14.60;71.30;16.00;100236.00;;;;5008196;28;20205;-75
2023/12/24 05:21:57;;;;;;;0.90;0.40;;;14.60;71.30;16.00;100229.00;;;;5009570;28;20192;-75
2023/12/24 05:24:24;;;;;;;2.83;0.68;;;14.60;71.40;16.00;100227.00;;;;5009440;28;20208;-75
2023/12/24 05:26:51;;;;;;;1.23;0.20;;;14.60;71.40;16.10;100219.00;;;;5007436;28;20209;-75
2023/12/24 05:29:19;;;;;;;1.98;0.30;;;14.60;71.50;16.10;100223.00;;;;5008122;28;20228;-75
2023/12/24 05:31:46;;;;;;;3.22;0.57;;;14.60;71.40;16.10;100225.00;;;;5011661;28;20207;-74
2023/12/24 05:34:13;;;;;;;1.58;0.63;;;14.70;71.50;16.10;100214.00;;;;5008220;28;20663;-75
2023/12/24 05:36:40;;;;;;;2.78;0.63;;;14.70;71.50;16.10;100221.00;;;;5006862;28;20211;-75
2023/12/24 05:39:11;;;;;;;1.15;0.50;;;14.70;71.50;16.10;100226.00;;;;5008735;28;20209;-74
2023/12/24 05:41:43;;;;;;;2.15;0.52;;;14.70;71.60;16.10;100218.00;;;;5008652;28;20237;-75
2023/12/24 05:44:10;;;;;;;1.67;0.50;;;14.70;71.60;16.20;100215.00;;;;5006816;28;20221;-75
2023/12/24 05:46:39;;;;;;;1.60;0.40;;;14.70;71.60;16.20;100215.00;;;;5008337;28;20205;-75
2023/12/24 05:49:05;;;;;;;4.93;0.90;;;14.70;71.60;16.10;100211.00;;;;5007710;28;20210;-75
2023/12/24 05:51:32;;;;;;;1.05;0.47;;;14.80;71.60;16.20;100212.00;;;;4989155;28;20213;-75
2023/12/24 05:53:59;;;;;;;1.63;0.63;;;14.80;71.60;16.20;100213.00;;;;5006506;28;20209;-75
2023/12/24 05:56:26;;;;;;;1.65;0.43;;;14.80;71.70;16.20;100214.00;;;;5007707;28;20205;-75
2023/12/24 05:58:54;;;;;;;1.58;0.60;;;14.80;71.60;16.20;100215.00;;;;5007653;28;20208;-75
2023/12/24 06:01:21;;;;;;;2.50;0.50;;;14.80;71.70;16.20;100210.00;;;;5005871;28;20204;-75
2023/12/24 06:03:49;;;;;;;1.58;0.45;;;14.80;71.60;16.20;100200.00;;;;5005241;28;20224;-75
2023/12/24 06:06:16;;;;;;;2.13;0.95;;;14.80;71.60;16.20;100195.00;;;;5008299;28;20651;-75
2023/12/24 06:08:43;;;;;;;1.00;0.20;;;14.80;71.70;16.20;100206.00;;;;5006350;28;20205;-75
2023/12/24 06:11:16;;;;;;;1.77;0.60;;;14.80;71.60;16.20;100202.00;;;;5006042;28;20678;-75
2023/12/24 06:13:44;;;;;;;2.28;0.40;;;14.80;71.70;16.20;100195.00;;;;5006114;28;20193;-75
2023/12/24 06:16:12;;;;;;;3.58;0.68;;;14.80;71.60;16.30;100186.00;;;;5004880;28;20209;-75
2023/12/24 06:18:39;;;;;;;2.85;0.75;;;14.90;71.70;16.30;100193.00;;;;5008288;28;20197;-75
2023/12/24 06:21:09;;;;;;;2.28;1.00;;;14.90;71.70;16.30;100190.00;;;;5008501;28;20679;-75
2023/12/24 06:23:36;;;;;;;2.95;0.60;;;14.90;71.80;16.30;100197.00;;;;5006533;28;20216;-75
2023/12/24 06:26:05;;;;;;;5.07;1.05;;;14.90;71.80;16.30;100194.00;;;;5007865;28;20224;-75
2023/12/24 06:28:32;;;;;;;1.88;0.73;;;14.90;71.70;16.30;100200.00;;;;5008095;28;20216;-75
2023/12/24 06:30:59;;;;;;;4.15;0.65;;;14.90;71.70;16.30;100200.00;;;;4999879;28;20212;-75
2023/12/24 06:33:26;;;;;;;3.35;0.60;;;14.90;71.80;16.30;100207.00;;;;5004770;28;20205;-75
2023/12/24 06:35:53;;;;;;;2.05;0.70;;;14.90;71.70;16.30;100205.00;;;;5007386;28;20228;-75
2023/12/24 06:38:21;;;;;;;3.58;0.77;;;14.90;71.70;16.30;100204.00;;;;5008687;28;20292;-75
2023/12/24 06:40:48;;;;;;;1.65;0.50;;;14.90;71.80;16.30;100208.00;;;;5008287;28;20326;-75
2023/12/24 06:43:15;;;;;;;2.80;0.57;;;14.90;71.70;16.30;100199.00;;;;5006862;28;20228;-75
2023/12/24 06:45:43;;;;;;;2.05;0.80;;;15.00;71.80;16.30;100207.00;;;;5006404;28;20220;-75
2023/12/24 06:48:10;;;;;;;3.33;0.70;;;15.00;71.70;16.30;100212.00;;;;5007778;28;20304;-75
2023/12/24 06:50:37;;;;;;;2.25;0.70;;;15.00;71.80;16.40;100214.00;;;;5007437;28;20201;-75
2023/12/24 06:53:05;;;;;;;3.45;0.82;;;15.00;71.80;16.30;100211.00;;;;5007312;28;20209;-75
2023/12/24 06:55:34;;;;;;;5.78;1.05;;;15.00;71.90;16.30;100195.00;;;;4999517;28;20220;-75
2023/12/24 06:58:02;;;;;;;9.10;1.27;;;15.00;71.80;16.40;100193.00;;;;5007885;28;20200;-75
2023/12/24 07:00:30;;;;;;;7.82;1.05;;;15.00;71.70;16.40;100192.00;;;;5008016;28;20205;-75
2023/12/24 07:02:56;;;;;;;2.72;1.08;;;15.00;71.80;16.40;100197.00;;;;5006381;28;20641;-75
2023/12/24 07:05:24;;;;;;;4.95;1.10;;;15.00;71.80;16.40;100187.00;;;;5008486;28;20197;-75
2023/12/24 07:07:51;;;;;;;4.22;0.98;;;15.00;71.90;16.40;100203.00;;;;5008464;28;20197;-75
2023/12/24 07:10:18;;;;;;;6.85;1.40;;;15.00;71.90;16.40;100205.00;;;;5005627;28;20679;-75
2023/12/24 07:12:47;;;;;;;4.55;1.83;;;15.00;71.90;16.40;100217.00;;;;5006113;28;20205;-75
2023/12/24 07:15:13;;;;;;;4.40;1.65;;;15.10;71.90;16.40;100196.00;;;;5003231;28;20546;-75
2023/12/24 07:17:40;;;;;;;7.57;1.52;;;15.10;72.00;16.50;100193.00;;;;5011179;28;20201;-75
2023/12/24 07:20:09;;;;;;;5.82;1.50;;;15.10;71.90;16.40;100182.00;;;;5011724;28;20216;-75
2023/12/24 07:22:36;;;;;;;6.60;2.17;;;15.10;72.10;16.50;100195.00;;;;5009960;28;20197;-75
2023/12/24 07:25:03;;;;;;;4.95;1.25;;;15.10;72.10;16.50;100189.00;;;;5009457;28;20205;-75
2023/12/24 07:27:30;;;;;;;8.80;1.50;;;15.10;72.00;16.50;100194.00;;;;5011017;28;20279;-75
2023/12/24 07:29:58;;;;;;;5.03;1.10;;;15.10;72.00;16.50;100203.00;;;;5009968;28;20286;-75
2023/12/24 07:32:25;;;;;;;8.38;2.22;;;15.10;72.00;16.50;100193.00;;;;5011405;28;20746;-75
2023/12/24 07:34:52;;;;;;;7.35;1.75;;;15.10;72.00;16.50;100194.00;;;;5009764;28;20208;-75
2023/12/24 07:37:19;;;;;;;8.13;2.05;;;15.10;72.00;16.50;100190.00;;;;5008805;28;20563;-75
2023/12/24 07:39:46;;;;;;;6.00;1.33;;;15.10;72.00;16.50;100186.00;;;;5010278;28;20197;-75
2023/12/24 07:42:13;;;;;;;8.02;1.67;;;15.10;72.00;16.50;100194.00;;;;5011319;28;20231;-76
2023/12/24 07:44:40;;;;;;;8.93;1.63;;;15.10;72.00;16.50;100187.00;;;;5010971;28;20223;-75
2023/12/24 07:47:08;;;;;;;5.18;1.48;;;15.10;72.00;16.50;100196.00;;;;5008577;28;20713;-76
2023/12/24 07:49:36;;;;;;;3.92;1.50;;;15.10;72.10;16.50;100189.00;;;;5009746;28;20197;-76
2023/12/24 07:52:03;;;;;;;10.40;1.90;;;15.20;72.10;16.50;100193.00;;;;5006934;28;20606;-75
2023/12/24 07:54:30;;;;;;;4.25;1.50;;;15.20;72.10;16.50;100184.00;;;;5008786;28;20216;-75
2023/12/24 07:56:57;;;;;;;11.27;1.80;;;15.20;72.10;16.50;100190.00;;;;5008012;28;20663;-75
2023/12/24 07:59:24;;;;;;;8.88;1.92;;;15.20;72.20;16.50;100182.00;;;;5006594;28;20208;-75
2023/12/24 08:01:51;;;;;;;7.18;1.80;;;15.20;72.20;16.60;100188.00;;;;5008835;28;20570;-75
2023/12/24 08:04:19;;;;;;;4.18;1.55;;;15.20;72.20;16.60;100185.00;;;;5011398;28;20691;-75
2023/12/24 08:06:46;;;;;;;5.15;1.38;;;15.20;72.10;16.60;100184.00;;;;5008843;28;20201;-75
2023/12/24 08:09:14;;;;;;;6.35;1.20;;;15.20;72.10;16.60;100182.00;;;;5010238;28;20207;-75
2023/12/24 08:11:41;;;;;;;3.45;0.82;;;15.20;72.10;16.60;100177.00;;;;5010305;28;20205;-75
2023/12/24 08:14:08;;;;;;;6.50;1.50;;;15.20;72.10;16.60;100183.00;;;;5010505;28;20204;-75
2023/12/24 08:16:35;;;;;;;5.47;1.70;;;15.20;72.20;16.60;100183.00;;;;5009610;28;20224;-75
2023/12/24 08:19:02;;;;;;;3.70;0.93;;;15.20;72.20;16.70;100186.00;;;;5009230;28;20204;-75
2023/12/24 08:21:30;;;;;;;3.08;0.88;;;15.20;72.20;16.60;100185.00;;;;5008469;28;20203;-75
2023/12/24 08:23:57;;;;;;;3.70;1.00;;;15.20;72.10;16.70;100183.00;;;;5008179;28;20212;-75
2023/12/24 08:26:26;;;;;;;4.47;0.60;;;15.20;72.20;16.70;100176.00;;;;5009778;28;20263;-76
2023/12/24 08:28:53;;;;;;;1.30;0.50;;;15.30;72.20;16.70;100186.00;;;;5008888;28;20197;-75
2023/12/24 08:31:19;;;;;;;0.93;0.40;;;15.30;72.10;16.70;100189.00;;;;5003860;28;20228;-75
2023/12/24 08:33:46;;;;;;;1.85;0.55;;;15.30;72.10;16.70;100190.00;;;;5008432;28;20551;-75
2023/12/24 08:36:15;;;;;;;1.77;0.40;;;15.20;72.10;16.70;100178.00;;;;5008587;28;20208;-76
2023/12/24 08:38:43;;;;;;;1.48;0.50;;;15.30;72.20;16.70;100173.00;;;;5007433;28;20213;-76
2023/12/24 08:41:10;;;;;;;2.45;0.47;;;15.30;72.20;16.70;100175.00;;;;5012411;28;20221;-76
2023/12/24 08:43:37;;;;;;;1.75;0.60;;;15.30;72.30;16.70;100179.00;;;;5010230;28;20312;-76
2023/12/24 08:46:06;;;;;;;1.38;0.40;;;15.30;72.30;16.70;100195.00;;;;5009349;28;20671;-76
2023/12/24 08:48:33;;;;;;;2.58;0.65;;;15.30;72.40;16.70;100192.00;;;;5008969;28;20209;-75
2023/12/24 08:51:01;;;;;;;1.38;0.57;;;15.30;72.40;16.70;100193.00;;;;5007130;28;20204;-76
2023/12/24 08:53:28;;;;;;;2.80;0.63;;;15.30;72.50;16.80;100191.00;;;;5009698;28;20311;-76
2023/12/24 08:55:56;;;;;;;2.75;0.63;;;15.30;72.40;16.70;100199.00;;;;5007437;28;20197;-75
2023/12/24 08:58:23;;;;;;;2.35;0.80;;;15.40;72.40;16.80;100174.00;;;;5009129;28;20220;-76
2023/12/24 09:00:50;;;;;;;4.13;0.88;;;15.40;72.40;16.80;100175.00;;;;5007033;28;20197;-76
2023/12/24 09:03:18;;;;;;;3.58;0.60;;;15.40;72.40;16.80;100170.00;;;;4994310;28;20221;-75
2023/12/24 09:05:45;;;;;;;2.15;0.80;;;15.40;72.40;16.80;100174.00;;;;5006865;28;20197;-76
2023/12/24 09:08:13;;;;;;;3.50;0.88;;;15.40;72.40;16.80;100175.00;;;;5007836;28;20196;-76
2023/12/24 09:10:41;;;;;;;2.75;0.80;;;15.40;72.50;16.80;100179.00;;;;5006051;28;20201;-75
2023/12/24 09:13:09;;;;;;;4.00;1.02;;;15.40;72.50;16.80;100175.00;;;;5024041;28;20670;-76
2023/12/24 09:15:36;;;;;;;3.85;0.80;;;15.40;72.50;16.80;100173.00;;;;5028792;28;20219;-77
2023/12/24 09:18:04;;;;;;;6.13;1.25;;;15.40;72.50;16.80;100184.00;;;;5024364;28;20205;-76
2023/12/24 09:20:31;;;;;;;4.90;1.10;;;15.40;72.60;16.80;100169.00;;;;5008151;28;20193;-76
2023/12/24 09:22:58;;;;;;;6.63;1.27;;;15.40;72.60;16.80;100164.00;;;;4989023;28;20329;-76
2023/12/24 09:25:24;;;;;;;5.63;1.30;;;15.40;72.60;16.80;100167.00;;;;4988845;28;20233;-75
2023/12/24 09:27:51;;;;;;;3.58;1.10;;;15.40;72.60;16.80;100162.00;;;;4988900;28;20209;-75
2023/12/24 09:30:21;;;;;;;3.88;0.80;;;15.40;72.60;16.80;100153.00;;;;5008646;28;20197;-75
2023/12/24 09:32:48;;;;;;;5.00;1.20;;;15.50;72.70;16.90;100149.00;;;;5008150;28;20205;-75
2023/12/24 09:35:15;;;;;;;7.28;1.77;;;15.50;72.70;16.90;100145.00;;;;5008558;28;20216;-76
2023/12/24 09:37:42;;;;;;;4.05;1.65;;;15.50;72.70;16.90;100143.00;;;;5008587;28;20212;-76
2023/12/24 09:40:10;;;;;;;6.68;1.50;;;15.50;72.70;16.90;100158.00;;;;5006230;28;20204;-76
2023/12/24 09:42:38;;;;;;;7.45;1.50;;;15.50;72.70;16.90;100147.00;;;;5007190;28;20232;-76
2023/12/24 09:45:07;;;;;;;5.82;1.50;;;15.50;72.70;16.90;100147.00;;;;5007264;28;20681;-76
2023/12/24 09:47:35;;;;;;;5.80;1.05;;;15.50;73.20;16.90;100148.00;;;;5008399;28;20200;-76
2023/12/24 09:50:02;;;;;;;7.38;2.03;;;15.50;72.60;17.00;100149.00;;;;5008049;28;20259;-76
2023/12/24 09:52:30;;;;;;;7.57;1.85;;;15.50;72.60;17.00;100150.00;;;;5007460;28;20201;-75
2023/12/24 09:54:57;;;;;;;9.05;2.03;;;15.60;72.80;17.00;100147.00;;;;5008083;28;20698;-76
2023/12/24 09:57:25;;;;;;;11.98;1.95;;;15.60;72.80;17.00;100157.00;;;;5008078;28;20205;-75
2023/12/24 09:59:52;;;;;;;11.88;2.97;;;15.60;72.80;17.00;100165.00;;;;5008140;28;20237;-76
2023/12/24 10:02:19;;;;;;;8.07;1.92;;;15.60;72.80;17.00;100173.00;;;;5008566;28;20205;-75
2023/12/24 10:04:47;;;;;;;11.93;2.25;;;15.60;72.80;17.00;100180.00;;;;5008661;28;20236;-75
2023/12/24 10:07:14;;;;;;;12.35;2.75;;;15.60;72.80;17.00;100186.00;;;;5008832;28;20216;-75
2023/12/24 10:09:49;;;;;;;11.77;2.53;;;15.60;72.80;17.00;100185.00;;;;5008679;28;20200;-75
2023/12/24 10:12:16;;;;;;;10.73;2.70;;;15.70;72.90;17.10;100187.00;;;;5008458;28;20211;-76
2023/12/24 10:14:58;;;;;;;13.57;2.50;;;15.70;72.90;17.00;100186.00;;;;5008157;28;20216;-75
2023/12/24 10:17:32;;;;;;;14.00;3.13;;;15.70;72.90;17.00;100184.00;;;;5008570;28;20205;-76
2023/12/24 10:20:03;;;;;;;15.43;2.97;;;15.70;72.90;17.00;100185.00;;;;5008245;28;20196;-76
2023/12/24 10:22:30;;;;;;;15.45;3.65;;;15.70;72.70;17.10;100187.00;;;;5008796;28;20566;-76
2023/12/24 10:25:02;;;;;;;11.25;2.33;;;15.70;72.70;17.00;100175.00;;;;5008489;28;20225;-76
2023/12/24 10:27:29;;;;;;;8.30;2.38;;;15.80;72.80;17.10;100167.00;;;;5008832;28;20201;-76
2023/12/24 10:30:10;;;;;;;10.07;1.88;;;15.80;72.80;17.00;100156.00;;;;5007658;28;20660;-76
2023/12/24 10:32:37;;;;;;;14.38;2.70;;;15.80;72.80;17.10;100181.00;;;;5008499;28;20201;-76
2023/12/24 10:35:07;;;;;;;11.75;3.05;;;15.80;72.80;17.10;100157.00;;;;5009211;28;20208;-75
2023/12/24 10:37:34;;;;;;;11.35;2.28;;;15.80;72.80;17.10;100156.00;;;;5028108;28;20207;-75
2023/12/24 10:40:09;;;;;;;13.60;2.92;;;15.80;72.70;17.10;100143.00;;;;5013615;28;20204;-75
2023/12/24 10:42:37;;;;;;;12.05;3.05;;;15.80;72.70;17.20;100154.00;;;;5012267;28;20597;-76
2023/12/24 10:45:05;;;;;;;8.02;1.80;;;15.80;72.70;17.20;100145.00;;;;5010984;28;20232;-76
2023/12/24 10:47:32;;;;;;;13.30;2.50;;;15.90;72.70;17.20;100151.00;;;;5011427;28;20197;-76
2023/12/24 10:49:59;;;;;;;9.50;2.08;;;15.90;72.70;17.20;100151.00;;;;5011621;28;20203;-76